createdAt,value
2023-02-11T00:02:48.184Z,14.30
2023-02-11T00:06:05.393Z,15.30
2023-02-11T00:09:14.294Z,14.50
2023-02-11T00:12:22.945Z,14.80
2023-02-11T00:15:31.137Z,16.70
2023-02-11T00:18:39.692Z,16.40
2023-02-11T00:21:47.768Z,13.20
2023-02-11T00:24:57.319Z,16.70
2023-02-11T00:28:05.608Z,15.70
2023-02-11T00:31:14.411Z,16.70
2023-02-11T00:34:22.610Z,15.70
2023-02-11T00:37:30.896Z,19.00
2023-02-11T00:40:39.271Z,20.50
2023-02-11T00:43:47.679Z,21.60
2023-02-11T00:46:55.792Z,19.30
2023-02-11T00:50:05.363Z,20.10
2023-02-11T00:53:14.082Z,22.50
2023-02-11T00:56:22.457Z,20.40
2023-02-11T00:59:30.517Z,19.40
2023-02-11T01:02:38.805Z,19.60
2023-02-11T01:05:46.761Z,21.00
2023-02-11T01:08:54.824Z,19.60
2023-02-11T01:12:03.033Z,19.00
2023-02-11T01:15:18.341Z,19.10
2023-02-11T01:18:26.945Z,16.90
2023-02-11T01:21:35.162Z,17.20
2023-02-11T01:24:43.191Z,18.50
2023-02-11T01:27:51.105Z,17.90
2023-02-11T01:31:01.250Z,19.50
2023-02-11T01:34:09.316Z,18.50
2023-02-11T01:37:18.666Z,19.30
2023-02-11T01:40:27.395Z,20.10
2023-02-11T01:43:38.885Z,21.10
2023-02-11T01:46:46.924Z,20.70
2023-02-11T01:50:03.055Z,21.60
2023-02-11T01:53:25.707Z,20.10
2023-02-11T01:56:54.635Z,20.60
2023-02-11T02:00:11.357Z,19.50
2023-02-11T02:03:23.878Z,21.00
2023-02-11T02:06:39.786Z,20.50
2023-02-11T02:09:54.323Z,18.90
2023-02-11T02:13:03.624Z,18.20
2023-02-11T02:16:16.663Z,15.80
2023-02-11T02:20:12.711Z,16.80
2023-02-11T02:24:08.673Z,15.60
2023-02-11T02:27:33.672Z,16.00
2023-02-11T02:31:29.725Z,17.20
2023-02-11T02:34:51.422Z,14.60
2023-02-11T02:38:08.201Z,16.30
2023-02-11T02:41:20.296Z,14.70
2023-02-11T02:44:29.472Z,15.70
2023-02-11T02:47:37.822Z,16.70
2023-02-11T02:50:46.509Z,16.30
2023-02-11T02:54:09.546Z,15.70
2023-02-11T02:57:34.910Z,15.50
2023-02-11T03:00:59.818Z,15.90
2023-02-11T03:04:19.596Z,13.90
2023-02-11T03:10:46.570Z,12.20
2023-02-11T03:13:55.948Z,14.70
2023-02-11T03:17:09.928Z,13.90
2023-02-11T03:20:23.422Z,15.80
2023-02-11T03:23:37.933Z,14.10
2023-02-11T03:26:53.321Z,14.50
2023-02-11T03:30:12.507Z,15.00
2023-02-11T03:33:27.927Z,14.60
2023-02-11T03:36:47.650Z,14.10
2023-02-11T03:43:17.336Z,11.80
2023-02-11T03:46:32.641Z,13.40
2023-02-11T03:49:44.077Z,13.80
2023-02-11T03:52:54.135Z,14.40
2023-02-11T03:56:06.697Z,14.40
2023-02-11T03:59:14.745Z,13.70
2023-02-11T04:02:23.679Z,13.40
2023-02-11T04:05:31.709Z,14.30
2023-02-11T04:08:39.878Z,15.10
2023-02-11T04:11:51.532Z,13.50
2023-02-11T04:14:59.833Z,14.70
2023-02-11T04:18:08.339Z,13.90
2023-02-11T04:21:16.464Z,14.40
2023-02-11T04:24:24.454Z,14.90
2023-02-11T04:27:32.730Z,14.80
2023-02-11T04:30:40.683Z,14.40
2023-02-11T04:33:48.564Z,14.40
2023-02-11T04:36:56.587Z,13.70
2023-02-11T04:40:05.423Z,14.00
2023-02-11T04:43:13.829Z,15.30
2023-02-11T04:46:21.799Z,15.20
2023-02-11T04:49:29.893Z,14.90
2023-02-11T04:52:38.023Z,15.20
2023-02-11T04:55:45.761Z,14.70
2023-02-11T04:58:53.706Z,15.20
2023-02-11T05:02:01.759Z,14.80
2023-02-11T05:05:10.874Z,14.90
2023-02-11T05:08:18.855Z,15.90
2023-02-11T05:11:28.453Z,14.60
2023-02-11T05:17:42.970Z,12.90
2023-02-11T05:20:50.885Z,13.60
2023-02-11T05:23:58.770Z,14.90
2023-02-11T05:27:06.848Z,14.10
2023-02-11T05:30:16.231Z,14.10
2023-02-11T05:33:24.711Z,14.20
2023-02-11T05:36:33.517Z,15.30
2023-02-11T05:39:41.683Z,15.40
2023-02-11T05:42:49.511Z,15.70
2023-02-11T05:45:58.284Z,15.20
2023-02-11T05:49:06.306Z,15.60
2023-02-11T05:52:14.221Z,15.50
2023-02-11T05:55:22.306Z,15.70
2023-02-11T05:58:30.735Z,15.30
2023-02-11T06:01:39.272Z,14.40
2023-02-11T06:04:47.437Z,14.90
2023-02-11T06:07:55.688Z,15.10
2023-02-11T06:11:03.865Z,16.00
2023-02-11T06:14:12.224Z,14.90
2023-02-11T06:17:20.241Z,14.20
2023-02-11T06:20:28.551Z,16.60
2023-02-11T06:23:37.038Z,17.80
2023-02-11T06:26:44.978Z,21.80
2023-02-11T06:29:53.650Z,22.00
2023-02-11T06:33:01.823Z,20.70
2023-02-11T06:36:19.717Z,16.20
2023-02-11T06:39:27.747Z,14.30
2023-02-11T06:42:38.810Z,14.50
2023-02-11T06:45:46.929Z,13.40
2023-02-11T06:48:54.826Z,12.30
2023-02-11T06:52:03.539Z,13.60
2023-02-11T06:55:12.304Z,13.40
2023-02-11T06:58:20.504Z,14.80
2023-02-11T07:01:30.431Z,15.90
2023-02-11T07:04:38.440Z,11.80
2023-02-11T07:07:46.432Z,15.30
2023-02-11T07:10:54.298Z,13.00
2023-02-11T07:14:08.462Z,13.80
2023-02-11T07:17:16.841Z,14.70
2023-02-11T07:20:25.600Z,14.50
2023-02-11T07:23:33.635Z,15.10
2023-02-11T07:26:42.220Z,14.00
2023-02-11T07:29:50.689Z,14.50
2023-02-11T07:32:59.438Z,14.40
2023-02-11T07:36:12.156Z,12.90
2023-02-11T07:39:22.182Z,12.10
2023-02-11T07:42:30.495Z,14.10
2023-02-11T07:45:41.882Z,12.70
2023-02-11T07:48:50.359Z,14.90
2023-02-11T07:51:58.641Z,14.80
2023-02-11T07:55:07.431Z,12.50
2023-02-11T07:58:15.802Z,14.30
2023-02-11T08:01:28.957Z,13.90
2023-02-11T08:04:37.228Z,14.80
2023-02-11T08:07:45.060Z,12.90
2023-02-11T08:10:53.428Z,13.20
2023-02-11T08:14:01.944Z,15.90
2023-02-11T08:17:09.933Z,14.60
2023-02-11T08:20:18.316Z,16.30
2023-02-11T08:23:26.603Z,16.20
2023-02-11T08:26:36.461Z,15.30
2023-02-11T08:29:44.469Z,17.20
2023-02-11T08:32:52.865Z,13.80
2023-02-11T08:36:01.994Z,14.90
2023-02-11T08:39:20.120Z,16.70
2023-02-11T08:42:28.625Z,16.60
2023-02-11T08:45:36.888Z,14.90
2023-02-11T08:48:45.461Z,15.60
2023-02-11T08:51:55.668Z,18.20
2023-02-11T08:55:03.795Z,17.60
2023-02-11T08:58:11.985Z,17.10
2023-02-11T09:01:23.258Z,18.20
2023-02-11T09:04:31.720Z,16.10
2023-02-11T09:07:40.215Z,17.10
2023-02-11T09:10:49.310Z,15.90
2023-02-11T09:13:58.284Z,16.70
2023-02-11T09:17:06.434Z,18.40
2023-02-11T09:20:19.856Z,18.20
2023-02-11T09:23:31.493Z,16.90
2023-02-11T09:26:43.939Z,18.10
2023-02-11T09:29:52.594Z,17.20
2023-02-11T09:33:00.687Z,18.90
2023-02-11T09:36:10.666Z,18.20
2023-02-11T09:39:23.799Z,19.50
2023-02-11T09:42:47.567Z,19.00
2023-02-11T09:45:58.535Z,18.20
2023-02-11T09:49:08.857Z,18.70
2023-02-11T09:52:37.259Z,19.50
2023-02-11T09:55:49.540Z,18.60
2023-02-11T09:58:57.880Z,20.20
2023-02-11T10:02:18.909Z,18.70
2023-02-11T10:05:45.813Z,19.70
2023-02-11T10:09:10.284Z,19.20
2023-02-11T10:12:34.042Z,19.20
2023-02-11T10:15:53.512Z,17.90
2023-02-11T10:19:24.464Z,19.80
2023-02-11T10:22:41.348Z,19.60
2023-02-11T10:25:54.756Z,19.80
2023-02-11T10:29:13.427Z,20.10
2023-02-11T10:32:36.614Z,18.00
2023-02-11T10:35:46.135Z,20.10
2023-02-11T10:38:54.446Z,19.40
2023-02-11T10:42:10.886Z,20.00
2023-02-11T10:45:37.716Z,18.50
2023-02-11T10:48:49.700Z,16.90
2023-02-11T10:52:21.819Z,17.90
2023-02-11T10:55:32.437Z,17.70
2023-02-11T10:58:48.225Z,17.60
2023-02-11T11:02:01.901Z,17.90
2023-02-11T11:05:19.881Z,20.10
2023-02-11T11:08:45.433Z,19.70
2023-02-11T11:11:58.449Z,17.50
2023-02-11T11:15:22.135Z,18.40
2023-02-11T11:18:30.487Z,18.50
2023-02-11T11:21:44.903Z,18.60
2023-02-11T11:24:55.369Z,17.40
2023-02-11T11:28:05.550Z,16.40
2023-02-11T11:31:24.412Z,27.00
2023-02-11T11:34:37.328Z,15.60
2023-02-11T11:37:47.117Z,17.10
2023-02-11T11:41:21.185Z,15.30
2023-02-11T11:44:33.503Z,13.80
2023-02-11T11:47:49.623Z,14.20
2023-02-11T11:51:01.520Z,13.20
2023-02-11T11:54:18.906Z,13.20
2023-02-11T11:57:31.460Z,13.70
2023-02-11T12:00:52.051Z,14.20
2023-02-11T12:04:40.186Z,13.10
2023-02-11T12:08:04.421Z,14.50
2023-02-11T12:11:24.302Z,13.70
2023-02-11T12:14:47.624Z,11.90
2023-02-11T12:18:27.222Z,11.60
2023-02-11T12:21:48.305Z,11.00
2023-02-11T12:25:21.728Z,10.50
2023-02-11T12:28:43.424Z,11.60
2023-02-11T12:32:08.262Z,11.80
2023-02-11T12:36:02.529Z,9.60
2023-02-11T12:39:27.698Z,10.50
2023-02-11T12:43:19.320Z,10.40
2023-02-11T12:46:51.661Z,9.70
2023-02-11T12:50:16.788Z,10.80
2023-02-11T12:53:50.223Z,10.30
2023-02-11T12:57:08.924Z,10.80
2023-02-11T13:00:24.992Z,11.60
2023-02-11T13:03:40.539Z,11.00
2023-02-11T13:06:57.322Z,10.60
2023-02-11T13:10:17.517Z,10.90
2023-02-11T13:13:31.252Z,11.20
2023-02-11T13:16:43.234Z,10.80
2023-02-11T13:20:01.020Z,11.00
2023-02-11T13:23:23.459Z,10.70
2023-02-11T13:26:40.927Z,10.20
2023-02-11T13:30:34.761Z,11.60
2023-02-11T13:33:46.081Z,10.20
2023-02-11T13:36:59.551Z,10.80
2023-02-11T13:40:24.529Z,11.00
2023-02-11T13:43:36.163Z,11.80
2023-02-11T13:46:59.761Z,11.20
2023-02-11T13:50:23.337Z,11.10
2023-02-11T13:53:44.835Z,12.20
2023-02-11T13:57:42.156Z,12.20
2023-02-11T14:00:53.231Z,10.20
2023-02-11T14:04:42.987Z,10.80
2023-02-11T14:08:41.422Z,12.70
2023-02-11T14:11:57.563Z,11.80
2023-02-11T14:15:47.752Z,11.70
2023-02-11T14:19:06.566Z,10.90
2023-02-11T14:22:23.918Z,12.00
2023-02-11T14:25:32.686Z,11.50
2023-02-11T14:28:44.912Z,11.90
2023-02-11T14:32:06.786Z,10.70
2023-02-11T14:35:22.739Z,11.80
2023-02-11T14:38:46.346Z,12.70
2023-02-11T14:41:55.720Z,12.20
2023-02-11T14:45:12.653Z,12.00
2023-02-11T14:48:23.960Z,12.30
2023-02-11T14:51:36.630Z,11.70
2023-02-11T14:54:49.907Z,13.20
2023-02-11T14:58:16.730Z,12.90
2023-02-11T15:01:36.688Z,12.10
2023-02-11T15:07:57.345Z,15.30
2023-02-11T15:11:13.172Z,13.70
2023-02-11T15:14:34.563Z,12.40
2023-02-11T15:17:43.509Z,13.30
2023-02-11T15:20:53.319Z,12.70
2023-02-11T15:24:06.522Z,12.70
2023-02-11T15:27:18.606Z,14.10
2023-02-11T15:30:35.126Z,12.80
2023-02-11T15:33:43.300Z,13.00
2023-02-11T15:36:51.370Z,13.40
2023-02-11T15:40:13.043Z,13.10
2023-02-11T15:43:21.256Z,12.60
2023-02-11T15:46:41.247Z,13.50
2023-02-11T15:49:51.709Z,13.80
2023-02-11T15:53:13.437Z,12.80
2023-02-11T15:56:26.878Z,12.30
2023-02-11T15:59:41.669Z,12.90
2023-02-11T16:02:51.313Z,11.90
2023-02-11T16:06:15.991Z,12.00
2023-02-11T16:09:37.274Z,11.90
2023-02-11T16:12:54.497Z,11.80
2023-02-11T16:16:06.365Z,12.40
2023-02-11T16:19:25.350Z,11.90
2023-02-11T16:22:38.323Z,12.20
2023-02-11T16:25:46.849Z,13.70
2023-02-11T16:28:55.341Z,12.60
2023-02-11T16:32:17.911Z,12.90
2023-02-11T16:35:26.087Z,14.90
2023-02-11T16:38:35.152Z,16.20
2023-02-11T16:41:43.568Z,18.70
2023-02-11T16:44:52.411Z,17.50
2023-02-11T16:48:02.470Z,18.20
2023-02-11T16:51:13.864Z,20.20
2023-02-11T16:54:22.561Z,21.30
2023-02-11T16:57:31.173Z,16.10
2023-02-11T17:00:39.228Z,14.70
2023-02-11T17:03:50.241Z,14.50
2023-02-11T17:06:58.827Z,14.60
2023-02-11T17:10:07.769Z,14.10
2023-02-11T17:13:15.923Z,12.80
2023-02-11T17:16:27.892Z,13.60
2023-02-11T17:19:35.941Z,13.50
2023-02-11T17:22:44.120Z,12.00
2023-02-11T17:26:00.064Z,13.80
2023-02-11T17:29:10.966Z,13.70
2023-02-11T17:32:19.274Z,15.40
2023-02-11T17:35:27.570Z,21.20
2023-02-11T17:38:35.519Z,16.90
2023-02-11T17:41:44.156Z,15.70
2023-02-11T17:44:52.194Z,15.10
2023-02-11T17:48:00.127Z,14.80
2023-02-11T17:51:22.205Z,14.10
2023-02-11T17:54:30.506Z,14.20
2023-02-11T17:57:38.364Z,14.80
2023-02-11T18:00:47.155Z,14.80
2023-02-11T18:03:54.926Z,14.50
2023-02-11T18:07:03.300Z,15.20
2023-02-11T18:10:14.204Z,14.50
2023-02-11T18:13:22.685Z,14.80
2023-02-11T18:16:31.438Z,15.00
2023-02-11T18:19:39.548Z,15.70
2023-02-11T18:22:47.491Z,15.90
2023-02-11T18:25:55.648Z,15.00
2023-02-11T18:29:04.458Z,13.60
2023-02-11T18:32:12.571Z,12.10
2023-02-11T18:35:21.715Z,14.20
2023-02-11T18:38:29.784Z,14.60
2023-02-11T18:41:40.399Z,12.40
2023-02-11T18:44:48.716Z,12.10
2023-02-11T18:47:56.667Z,12.60
2023-02-11T18:51:09.409Z,13.80
2023-02-11T18:54:17.690Z,13.10
2023-02-11T18:57:26.174Z,11.20
2023-02-11T19:00:35.918Z,10.60
2023-02-11T19:03:44.168Z,11.30
2023-02-11T19:06:53.579Z,11.90
2023-02-11T19:10:01.877Z,12.10
2023-02-11T19:13:10.357Z,11.60
2023-02-11T19:16:19.893Z,12.50
2023-02-11T19:19:31.212Z,11.50
2023-02-11T19:22:39.266Z,12.30
2023-02-11T19:25:52.908Z,11.00
2023-02-11T19:29:03.143Z,11.30
2023-02-11T19:32:11.696Z,7.30
2023-02-11T19:35:19.872Z,7.50
2023-02-11T19:38:28.417Z,10.90
2023-02-11T19:41:37.835Z,9.90
2023-02-11T19:44:47.278Z,10.80
2023-02-11T19:48:00.249Z,9.50
2023-02-11T19:51:14.227Z,8.80
2023-02-11T19:54:23.259Z,11.20
2023-02-11T19:57:31.484Z,9.40
2023-02-11T20:00:39.551Z,9.80
2023-02-11T20:03:50.095Z,10.00
2023-02-11T20:06:58.223Z,12.10
2023-02-11T20:10:07.504Z,12.10
2023-02-11T20:13:15.707Z,11.60
2023-02-11T20:16:44.581Z,12.10
2023-02-11T20:19:55.372Z,9.20
2023-02-11T20:23:03.596Z,10.40
2023-02-11T20:26:15.656Z,10.80
2023-02-11T20:29:24.897Z,11.40
2023-02-11T20:32:38.081Z,10.60
2023-02-11T20:35:46.392Z,11.10
2023-02-11T20:38:55.335Z,11.50
2023-02-11T20:42:03.477Z,11.10
2023-02-11T20:45:12.349Z,5.40
2023-02-11T20:48:20.204Z,11.40
2023-02-11T20:51:31.673Z,10.90
2023-02-11T20:54:39.786Z,10.20
2023-02-11T20:57:47.871Z,9.70
2023-02-11T21:00:55.872Z,9.40
2023-02-11T21:04:06.746Z,9.50
2023-02-11T21:07:14.936Z,11.40
2023-02-11T21:10:23.609Z,12.10
2023-02-11T21:13:32.097Z,11.40
2023-02-11T21:16:40.209Z,13.20
2023-02-11T21:19:48.342Z,12.60
2023-02-11T21:22:56.224Z,13.50
2023-02-11T21:26:04.393Z,14.30
2023-02-11T21:29:13.337Z,13.90
2023-02-11T21:32:21.283Z,12.60
2023-02-11T21:35:29.601Z,13.60
2023-02-11T21:38:37.453Z,11.20
2023-02-11T21:41:45.524Z,11.80
2023-02-11T21:44:53.515Z,11.50
2023-02-11T21:48:02.183Z,12.40
2023-02-11T21:51:14.281Z,12.00
2023-02-11T21:54:24.264Z,10.70
2023-02-11T21:57:32.592Z,10.60
2023-02-11T22:00:41.438Z,10.90
2023-02-11T22:03:50.311Z,11.00
2023-02-11T22:06:58.505Z,11.80
2023-02-11T22:10:07.690Z,10.60
2023-02-11T22:13:16.137Z,10.30
2023-02-11T22:16:24.198Z,10.80
2023-02-11T22:19:34.259Z,10.40
2023-02-11T22:22:42.150Z,8.70
2023-02-11T22:25:50.053Z,10.90
2023-02-11T22:28:59.105Z,7.10
2023-02-11T22:32:07.557Z,10.20
2023-02-11T22:35:15.881Z,10.30
2023-02-11T22:38:24.084Z,10.10
2023-02-11T22:41:32.351Z,11.10
2023-02-11T22:44:40.115Z,11.30
2023-02-11T22:47:48.001Z,9.60
2023-02-11T22:51:00.920Z,11.50
2023-02-11T22:54:13.672Z,10.60
2023-02-11T22:57:21.477Z,6.90
2023-02-11T23:00:37.467Z,10.50
2023-02-11T23:03:45.964Z,10.10
2023-02-11T23:06:53.718Z,8.80
2023-02-11T23:10:02.031Z,9.90
2023-02-11T23:13:11.549Z,12.40
2023-02-11T23:16:22.772Z,10.00
2023-02-11T23:19:30.855Z,10.80
2023-02-11T23:22:38.737Z,9.90
2023-02-11T23:25:50.015Z,10.80
2023-02-11T23:28:59.086Z,10.60
2023-02-11T23:32:07.429Z,10.90
2023-02-11T23:35:22.068Z,11.10
2023-02-11T23:38:30.300Z,9.40
2023-02-11T23:41:38.061Z,10.70
2023-02-11T23:44:45.958Z,9.90
2023-02-11T23:47:53.759Z,11.20
2023-02-11T23:51:02.191Z,8.30
2023-02-11T23:54:11.936Z,10.50
2023-02-11T23:57:20.693Z,10.20
